Time;durP1;ratioP1;P1;durP2;ratioP2;P2;SDS_P1;SDS_P2;PMS_P1;PMS_P2;Temp;Humidity;BMP_temperature;BMP_pressure;BME280_temperature;BME280_humidity;BME280_pressure;Samples;Min_cycle;Max_cycle;Signal;HPM_P1;HPM_P2
2021/07/18 00:00:54;;;;;;;11.33;5.00;;;;;;;-145.18;100.00;60484.78;5078627;28;20030;-72
2021/07/18 00:03:20;;;;;;;13.13;4.60;;;;;;;-145.18;100.00;60484.78;5088768;28;20554;-72
2021/07/18 00:05:45;;;;;;;11.23;4.03;;;;;;;-145.18;100.00;60484.78;5077461;28;20017;-72
2021/07/18 00:08:11;;;;;;;11.37;4.07;;;;;;;-145.18;100.00;60484.78;5074982;28;20056;-72
2021/07/18 00:10:37;;;;;;;19.40;4.60;;;;;;;-145.18;100.00;60484.78;5074493;28;20332;-72
2021/07/18 00:13:02;;;;;;;13.23;4.53;;;;;;;-145.18;100.00;60484.78;5077531;28;20682;-72
2021/07/18 00:15:28;;;;;;;15.07;5.20;;;;;;;-145.18;100.00;60484.78;5079147;28;20060;-72
2021/07/18 00:17:54;;;;;;;16.13;4.87;;;;;;;-145.18;100.00;60484.78;5079264;28;20032;-72
2021/07/18 00:20:19;;;;;;;13.93;3.90;;;;;;;-145.18;100.00;60484.78;5078411;28;20233;-72
2021/07/18 00:22:45;;;;;;;13.20;4.67;;;;;;;-145.18;100.00;60484.78;5078544;28;20016;-72
2021/07/18 00:25:11;;;;;;;15.93;4.83;;;;;;;-145.18;100.00;60484.78;5078766;28;20411;-72
2021/07/18 00:27:37;;;;;;;14.93;4.63;;;;;;;-145.18;100.00;60484.78;5078990;28;20079;-72
2021/07/18 00:30:07;;;;;;;11.33;4.57;;;;;;;-145.18;100.00;60484.78;5084606;28;20020;-72
2021/07/18 00:32:33;;;;;;;12.87;4.47;;;;;;;-145.18;100.00;60484.78;5077995;28;20060;-72
2021/07/18 00:34:58;;;;;;;12.53;3.87;;;;;;;-145.18;100.00;60484.78;5078428;28;20070;-72
2021/07/18 00:37:24;;;;;;;14.07;4.30;;;;;;;-145.18;100.00;60484.78;5078966;28;20239;-72
2021/07/18 00:39:49;;;;;;;11.83;4.67;;;;;;;-145.18;100.00;60484.78;5078296;28;20030;-72
2021/07/18 00:42:19;;;;;;;16.07;4.27;;;;;;;-145.18;100.00;60484.78;5079051;28;20024;-72
2021/07/18 00:44:44;;;;;;;15.23;4.47;;;;;;;-145.18;100.00;60484.78;5078280;28;20464;-72
2021/07/18 00:47:10;;;;;;;13.97;4.20;;;;;;;-145.18;100.00;60484.78;5078743;28;20284;-72
2021/07/18 00:49:37;;;;;;;11.73;4.40;;;;;;;-145.18;100.00;60484.78;5078782;28;20032;-72
2021/07/18 00:52:04;;;;;;;16.57;4.80;;;;;;;-145.18;100.00;60484.78;5078107;28;20024;-72
2021/07/18 00:54:29;;;;;;;43.63;17.30;;;;;;;-145.18;100.00;60484.78;5078216;28;20028;-72
2021/07/18 00:56:57;;;;;;;10.23;4.73;;;;;;;-145.18;100.00;60484.78;5079379;28;20035;-73
2021/07/18 00:59:23;;;;;;;11.77;4.40;;;;;;;-145.18;100.00;60484.78;5077519;28;20124;-72
2021/07/18 01:01:50;;;;;;;14.23;4.47;;;;;;;-145.18;100.00;60484.78;5076381;28;20532;-72
2021/07/18 01:04:15;;;;;;;12.97;4.80;;;;;;;-145.18;100.00;60484.78;5078338;28;20012;-73
2021/07/18 01:06:41;;;;;;;14.30;4.30;;;;;;;-145.18;100.00;60484.78;5076875;28;20379;-72
2021/07/18 01:09:07;;;;;;;15.30;4.43;;;;;;;-145.18;100.00;60484.78;5077286;28;20499;-72
2021/07/18 01:11:32;;;;;;;14.73;4.70;;;;;;;-145.18;100.00;60484.78;5075688;28;20028;-72
2021/07/18 01:13:58;;;;;;;13.13;4.50;;;;;;;-145.18;100.00;60484.78;5075671;28;20075;-72
2021/07/18 01:16:23;;;;;;;17.37;4.70;;;;;;;-145.18;100.00;60484.78;5078219;28;20032;-73
2021/07/18 01:18:49;;;;;;;19.13;5.23;;;;;;;-145.18;100.00;60484.78;5076398;28;20034;-72
2021/07/18 01:21:15;;;;;;;12.87;4.63;;;;;;;-145.18;100.00;60484.78;5077413;28;20036;-72
2021/07/18 01:23:41;;;;;;;12.23;4.50;;;;;;;-145.18;100.00;60484.78;5077178;28;20032;-72
2021/07/18 01:26:07;;;;;;;14.57;5.27;;;;;;;-145.18;100.00;60484.78;5077984;28;20046;-72
2021/07/18 01:28:33;;;;;;;12.50;4.13;;;;;;;-145.18;100.00;60484.78;5082700;28;20331;-72
2021/07/18 01:30:59;;;;;;;13.00;4.93;;;;;;;-145.18;100.00;60484.78;5077499;28;20189;-72
2021/07/18 01:33:24;;;;;;;13.97;4.77;;;;;;;-145.18;100.00;60484.78;5078011;28;20084;-72
2021/07/18 01:35:50;;;;;;;18.33;4.60;;;;;;;-145.18;100.00;60484.78;5078163;28;20019;-72
2021/07/18 01:38:15;;;;;;;10.83;4.50;;;;;;;-145.18;100.00;60484.78;5078087;28;20032;-72
2021/07/18 01:40:42;;;;;;;13.40;4.37;;;;;;;-145.18;100.00;60484.78;5077012;28;20027;-72
2021/07/18 01:43:08;;;;;;;14.67;4.43;;;;;;;-145.18;100.00;60484.78;5077222;28;20181;-72
2021/07/18 01:45:34;;;;;;;16.93;4.60;;;;;;;-145.18;100.00;60484.78;5077131;28;20539;-73
2021/07/18 01:47:59;;;;;;;14.37;5.03;;;;;;;-145.18;100.00;60484.78;5078181;28;20423;-72
2021/07/18 01:50:25;;;;;;;11.67;4.60;;;;;;;-145.18;100.00;60484.78;5077251;28;20027;-72
2021/07/18 01:52:50;;;;;;;14.43;4.13;;;;;;;-145.18;100.00;60484.78;5077874;28;20051;-72
2021/07/18 01:55:20;;;;;;;13.97;4.67;;;;;;;-145.18;100.00;60484.78;5076793;28;20163;-72
2021/07/18 01:57:46;;;;;;;13.07;4.27;;;;;;;-145.18;100.00;60484.78;5078169;28;20027;-72
2021/07/18 02:00:13;;;;;;;15.73;4.50;;;;;;;-145.18;100.00;60484.78;5076691;28;20055;-72
2021/07/18 02:02:43;;;;;;;18.53;4.33;;;;;;;-145.18;100.00;60484.78;5076874;28;20292;-72
2021/07/18 02:05:09;;;;;;;15.23;4.30;;;;;;;-145.18;100.00;60484.78;5075470;28;20016;-72
2021/07/18 02:07:35;;;;;;;13.60;4.33;;;;;;;-145.18;100.00;60484.78;5077781;28;20032;-72
2021/07/18 02:10:00;;;;;;;14.37;4.70;;;;;;;-145.18;100.00;60484.78;5077296;28;20180;-72
2021/07/18 02:12:26;;;;;;;13.00;4.30;;;;;;;-145.18;100.00;60484.78;5076318;28;20492;-72
2021/07/18 02:14:55;;;;;;;16.30;4.80;;;;;;;-145.18;100.00;60484.78;5078195;28;20496;-72
2021/07/18 02:17:20;;;;;;;14.10;4.57;;;;;;;-145.18;100.00;60484.78;5076254;28;20024;-72
2021/07/18 02:19:46;;;;;;;11.10;4.27;;;;;;;-145.18;100.00;60484.78;5076641;28;20085;-72
2021/07/18 02:22:11;;;;;;;17.57;5.30;;;;;;;-145.18;100.00;60484.78;5077863;28;20050;-69
2021/07/18 02:24:37;;;;;;;17.07;4.27;;;;;;;-145.18;100.00;60484.78;5076632;28;20024;-69
2021/07/18 02:27:03;;;;;;;14.77;4.83;;;;;;;-145.18;100.00;60484.78;5077126;28;20599;-69
2021/07/18 02:29:28;;;;;;;16.53;4.80;;;;;;;-145.18;100.00;60484.78;5076515;28;20032;-69
2021/07/18 02:31:54;;;;;;;12.00;4.30;;;;;;;-145.18;100.00;60484.78;5075611;28;20126;-69
2021/07/18 02:34:23;;;;;;;16.40;4.20;;;;;;;-145.18;100.00;60484.78;5075829;28;20591;-69
2021/07/18 02:36:49;;;;;;;14.60;4.30;;;;;;;-145.18;100.00;60484.78;5077185;28;20155;-69
2021/07/18 02:39:14;;;;;;;13.00;4.37;;;;;;;-145.18;100.00;60484.78;5076762;28;20386;-69
2021/07/18 02:41:40;;;;;;;14.03;4.10;;;;;;;-145.18;100.00;60484.78;5076541;28;20031;-69
2021/07/18 02:44:06;;;;;;;11.60;4.00;;;;;;;-145.18;100.00;60484.78;5074630;28;20177;-70
2021/07/18 02:46:32;;;;;;;12.10;4.43;;;;;;;-145.18;100.00;60484.78;5076648;28;20424;-69
2021/07/18 02:48:57;;;;;;;14.53;4.50;;;;;;;-145.18;100.00;60484.78;5076519;28;20282;-69
2021/07/18 02:51:23;;;;;;;15.63;4.70;;;;;;;-145.18;100.00;60484.78;5076572;28;20077;-69
2021/07/18 02:53:48;;;;;;;13.50;4.00;;;;;;;-145.18;100.00;60484.78;5078382;28;20111;-69
2021/07/18 02:56:14;;;;;;;11.63;4.37;;;;;;;-145.18;100.00;60484.78;5076143;28;20089;-69
2021/07/18 02:58:39;;;;;;;12.00;4.33;;;;;;;-145.18;100.00;60484.78;5076272;28;20096;-69
2021/07/18 03:01:05;;;;;;;15.37;4.10;;;;;;;-145.18;100.00;60484.78;5076200;28;20715;-70
2021/07/18 03:03:30;;;;;;;17.23;5.33;;;;;;;-145.18;100.00;60484.78;5076309;28;20078;-69
2021/07/18 03:05:56;;;;;;;17.43;4.97;;;;;;;-145.18;100.00;60484.78;5066415;28;20091;-69
2021/07/18 03:08:21;;;;;;;22.13;5.63;;;;;;;-145.18;100.00;60484.78;5067721;28;20028;-70
2021/07/18 03:10:47;;;;;;;13.23;4.57;;;;;;;-145.18;100.00;60484.78;5065683;28;20028;-70
2021/07/18 03:13:12;;;;;;;14.97;4.27;;;;;;;-145.18;100.00;60484.78;5068315;28;20583;-70
2021/07/18 03:15:38;;;;;;;12.60;4.43;;;;;;;-145.18;100.00;60484.78;5072213;28;20062;-70
2021/07/18 03:18:06;;;;;;;14.73;4.70;;;;;;;-145.18;100.00;60484.78;5076294;28;20059;-69
2021/07/18 03:20:32;;;;;;;12.30;4.30;;;;;;;-145.18;100.00;60484.78;5076440;28;20024;-69
2021/07/18 03:22:58;;;;;;;13.73;3.90;;;;;;;-145.18;100.00;60484.78;5076068;28;20039;-69
2021/07/18 03:25:23;;;;;;;18.10;4.90;;;;;;;-145.18;100.00;60484.78;5074777;28;20024;-69
2021/07/18 03:27:49;;;;;;;14.97;4.67;;;;;;;-145.18;100.00;60484.78;5076650;28;20024;-70
2021/07/18 03:30:16;;;;;;;15.77;4.70;;;;;;;-145.18;100.00;60484.78;5075813;28;20036;-70
2021/07/18 03:32:42;;;;;;;14.50;4.40;;;;;;;-145.18;100.00;60484.78;5076597;28;20666;-70
2021/07/18 03:35:09;;;;;;;15.80;4.93;;;;;;;-145.18;100.00;60484.78;5075567;28;20111;-69
2021/07/18 03:37:38;;;;;;;16.67;5.03;;;;;;;-145.18;100.00;60484.78;5076445;28;20265;-69
2021/07/18 03:40:10;;;;;;;15.10;4.57;;;;;;;-145.18;100.00;60484.78;5075484;28;20051;-69
2021/07/18 03:42:36;;;;;;;15.97;4.40;;;;;;;-145.18;100.00;60484.78;5076227;28;20024;-69
2021/07/18 03:45:03;;;;;;;9.47;3.87;;;;;;;-145.18;100.00;60484.78;5075518;28;20055;-69
2021/07/18 03:47:28;;;;;;;14.70;4.70;;;;;;;-145.18;100.00;60484.78;5077330;28;20031;-69
2021/07/18 03:49:54;;;;;;;15.43;4.73;;;;;;;-145.18;100.00;60484.78;5080104;28;20656;-69
2021/07/18 03:52:19;;;;;;;15.40;4.80;;;;;;;-145.18;100.00;60484.78;5079704;28;20028;-69
2021/07/18 03:54:45;;;;;;;14.63;4.40;;;;;;;-145.18;100.00;60484.78;5078929;28;20237;-69
2021/07/18 03:57:10;;;;;;;10.43;4.53;;;;;;;-145.18;100.00;60484.78;5079161;28;20051;-70
2021/07/18 03:59:35;;;;;;;11.73;4.23;;;;;;;-145.18;100.00;60484.78;5079394;28;20036;-69
2021/07/18 04:02:01;;;;;;;12.27;4.53;;;;;;;-145.18;100.00;60484.78;5079207;28;20032;-69
2021/07/18 04:04:27;;;;;;;10.70;4.13;;;;;;;-145.18;100.00;60484.78;5079326;28;20081;-69
2021/07/18 04:06:52;;;;;;;11.40;4.47;;;;;;;-145.18;100.00;60484.78;5079114;28;20034;-69
2021/07/18 04:09:18;;;;;;;14.63;4.57;;;;;;;-145.18;100.00;60484.78;5079137;28;20023;-69
2021/07/18 04:11:43;;;;;;;10.37;4.20;;;;;;;-145.18;100.00;60484.78;5079544;28;20886;-69
2021/07/18 04:14:08;;;;;;;14.13;4.47;;;;;;;-145.18;100.00;60484.78;5077791;28;20135;-69
2021/07/18 04:16:34;;;;;;;11.13;4.50;;;;;;;-145.18;100.00;60484.78;5079120;28;20050;-69
2021/07/18 04:18:59;;;;;;;11.00;4.37;;;;;;;-145.18;100.00;60484.78;5078895;28;20361;-69
2021/07/18 04:21:25;;;;;;;9.60;4.17;;;;;;;-145.18;100.00;60484.78;5079284;28;20274;-68
2021/07/18 04:23:51;;;;;;;10.37;3.63;;;;;;;-145.18;100.00;60484.78;5079127;28;20028;-68
2021/07/18 04:26:17;;;;;;;9.43;3.57;;;;;;;-145.18;100.00;60484.78;5078322;28;20279;-70
2021/07/18 04:28:42;;;;;;;8.60;3.63;;;;;;;-145.18;100.00;60484.78;5078401;28;20473;-69
2021/07/18 04:31:08;;;;;;;8.83;3.03;;;;;;;-145.18;100.00;60484.78;5078845;28;20028;-69
2021/07/18 04:33:33;;;;;;;12.13;3.40;;;;;;;-145.18;100.00;60484.78;5078992;28;20610;-68
2021/07/18 04:35:59;;;;;;;7.23;3.10;;;;;;;-145.18;100.00;60484.78;5077662;28;20024;-70
2021/07/18 04:38:24;;;;;;;7.03;2.90;;;;;;;-145.18;100.00;60484.78;5080202;28;20024;-69
2021/07/18 04:40:50;;;;;;;9.93;3.17;;;;;;;-145.18;100.00;60484.78;5078628;28;20027;-69
2021/07/18 04:43:15;;;;;;;7.43;3.33;;;;;;;-145.18;100.00;60484.78;5078926;28;20107;-68
2021/07/18 04:45:41;;;;;;;10.20;2.97;;;;;;;-145.18;100.00;60484.78;5078365;28;20146;-68
2021/07/18 04:48:07;;;;;;;9.67;2.90;;;;;;;-145.18;100.00;60484.78;5078662;28;20028;-68
2021/07/18 04:50:33;;;;;;;6.73;2.60;;;;;;;-145.18;100.00;60484.78;5078405;28;20028;-69
2021/07/18 04:53:01;;;;;;;7.03;2.70;;;;;;;-145.18;100.00;60484.78;5079132;28;20024;-68
2021/07/18 04:55:27;;;;;;;7.53;2.90;;;;;;;-145.18;100.00;60484.78;5077763;28;20377;-69
2021/07/18 04:57:53;;;;;;;8.10;2.87;;;;;;;-145.18;100.00;60484.78;5078174;28;21449;-68
2021/07/18 05:00:21;;;;;;;8.77;3.00;;;;;;;-145.18;100.00;60484.78;5077591;28;20098;-68
2021/07/18 05:02:50;;;;;;;8.80;2.97;;;;;;;-145.18;100.00;60484.78;5077486;28;20154;-69
2021/07/18 05:05:17;;;;;;;8.17;2.60;;;;;;;-145.18;100.00;60484.78;5077736;28;20019;-69
2021/07/18 05:07:53;;;;;;;8.93;2.80;;;;;;;-145.18;100.00;60484.78;5078749;28;20257;-69
2021/07/18 05:10:21;;;;;;;8.70;3.00;;;;;;;-145.18;100.00;60484.78;5077846;28;20271;-69
2021/07/18 05:12:48;;;;;;;9.67;2.83;;;;;;;-145.18;100.00;60484.78;5077460;28;20044;-69
2021/07/18 05:15:15;;;;;;;12.90;2.80;;;;;;;-145.18;100.00;60484.78;5078246;28;20640;-69
2021/07/18 05:17:40;;;;;;;9.43;2.90;;;;;;;-145.18;100.00;60484.78;5078090;28;20225;-69
2021/07/18 05:20:09;;;;;;;8.20;2.70;;;;;;;-145.18;100.00;60484.78;5077316;28;20222;-69
2021/07/18 05:22:35;;;;;;;8.30;2.67;;;;;;;-145.18;100.00;60484.78;5078205;28;20020;-69
2021/07/18 05:25:01;;;;;;;9.73;3.10;;;;;;;-145.18;100.00;60484.78;5077907;28;20206;-69
2021/07/18 05:27:27;;;;;;;6.33;2.80;;;;;;;-145.18;100.00;60484.78;5077803;28;20024;-68
2021/07/18 05:29:53;;;;;;;9.40;2.90;;;;;;;-145.18;100.00;60484.78;5077587;28;20085;-68
2021/07/18 05:32:18;;;;;;;8.98;2.60;;;;;;;-145.18;100.00;60484.78;5077786;28;21350;-68
2021/07/18 05:34:44;;;;;;;7.57;3.15;;;;;;;-145.18;100.00;60484.78;5077926;28;20567;-68
2021/07/18 05:37:10;;;;;;;6.75;2.60;;;;;;;-145.18;100.00;60484.78;5078276;28;20042;-69
2021/07/18 05:39:35;;;;;;;5.80;2.22;;;;;;;-145.18;100.00;60484.78;5077080;28;20023;-68
2021/07/18 05:42:02;;;;;;;6.38;2.38;;;;;;;-145.18;100.00;60484.78;5077627;28;20316;-69
2021/07/18 05:44:28;;;;;;;5.93;2.08;;;;;;;-145.18;100.00;60484.78;5077569;28;20148;-68
2021/07/18 05:46:53;;;;;;;5.70;2.30;;;;;;;-145.18;100.00;60484.78;5078094;28;20489;-68
2021/07/18 05:49:19;;;;;;;9.55;2.13;;;;;;;-145.18;100.00;60484.78;5077311;28;20110;-69
2021/07/18 05:51:44;;;;;;;7.93;2.38;;;;;;;-145.18;100.00;60484.78;5078160;28;20031;-68
2021/07/18 05:54:10;;;;;;;10.48;2.47;;;;;;;-145.18;100.00;60484.78;5076971;28;20024;-68
2021/07/18 05:56:36;;;;;;;6.28;2.35;;;;;;;-145.18;100.00;60484.78;5078105;28;20208;-68
2021/07/18 05:59:01;;;;;;;6.28;2.25;;;;;;;-145.18;100.00;60484.78;5077244;28;20056;-68
2021/07/18 06:01:27;;;;;;;7.13;2.40;;;;;;;-145.18;100.00;60484.78;5077374;28;20058;-69
2021/07/18 06:03:52;;;;;;;9.85;2.78;;;;;;;-145.18;100.00;60484.78;5076649;28;20032;-69
2021/07/18 06:06:17;;;;;;;5.18;2.50;;;;;;;-145.18;100.00;60484.78;5078010;28;20023;-69
2021/07/18 06:08:43;;;;;;;8.02;2.63;;;;;;;-145.18;100.00;60484.78;5077453;28;20035;-69
2021/07/18 06:11:09;;;;;;;7.28;2.25;;;;;;;-145.18;100.00;60484.78;5075908;28;20036;-69
2021/07/18 06:13:34;;;;;;;6.65;2.42;;;;;;;-145.18;100.00;60484.78;5081265;28;20139;-69
2021/07/18 06:16:04;;;;;;;6.82;2.25;;;;;;;-145.18;100.00;60484.78;5072653;28;20103;-69
2021/07/18 06:18:29;;;;;;;4.75;2.30;;;;;;;-145.18;100.00;60484.78;5077240;28;20137;-69
2021/07/18 06:20:55;;;;;;;6.22;2.38;;;;;;;-145.18;100.00;60484.78;5079882;28;20309;-69
2021/07/18 06:23:20;;;;;;;6.03;2.22;;;;;;;-145.18;100.00;60484.78;5066048;28;20345;-69
2021/07/18 06:25:46;;;;;;;8.65;2.60;;;;;;;-145.18;100.00;60484.78;5061204;28;20018;-69
2021/07/18 06:28:11;;;;;;;5.80;2.60;;;;;;;-145.18;100.00;60484.78;5061299;28;20039;-69
2021/07/18 06:30:37;;;;;;;5.85;2.10;;;;;;;-145.18;100.00;60484.78;5059785;28;20346;-69
2021/07/18 06:33:02;;;;;;;6.90;2.63;;;;;;;-145.18;100.00;60484.78;5059695;28;20036;-69
2021/07/18 06:35:28;;;;;;;6.43;2.08;;;;;;;-145.18;100.00;60484.78;5059827;28;20446;-69
2021/07/18 06:37:53;;;;;;;4.28;2.35;;;;;;;-145.18;100.00;60484.78;5060983;28;20040;-69
2021/07/18 06:40:19;;;;;;;6.32;2.22;;;;;;;-145.18;100.00;60484.78;5066154;28;20025;-68
2021/07/18 06:42:44;;;;;;;6.28;1.90;;;;;;;-145.18;100.00;60484.78;5068082;28;20393;-69
2021/07/18 06:45:11;;;;;;;6.22;2.05;;;;;;;-145.18;100.00;60484.78;5046262;28;20098;-69
2021/07/18 06:47:36;;;;;;;4.20;1.50;;;;;;;-145.18;100.00;60484.78;5070382;28;20411;-69
2021/07/18 06:50:02;;;;;;;4.85;1.42;;;;;;;-145.18;100.00;60484.78;5059365;28;20020;-69
2021/07/18 06:52:28;;;;;;;4.88;1.60;;;;;;;-145.18;100.00;60484.78;5069045;28;20036;-69
2021/07/18 06:54:53;;;;;;;8.57;1.27;;;;;;;-145.18;100.00;60484.78;5063141;28;20037;-69
2021/07/18 06:57:20;;;;;;;4.28;1.45;;;;;;;-145.18;100.00;60484.78;5067680;28;20043;-70
2021/07/18 06:59:46;;;;;;;3.60;1.23;;;;;;;-145.18;100.00;60484.78;5062680;28;20106;-69
2021/07/18 07:02:12;;;;;;;3.90;1.08;;;;;;;-145.18;100.00;60484.78;5069601;28;20346;-69
2021/07/18 07:04:37;;;;;;;3.15;1.05;;;;;;;-145.18;100.00;60484.78;5062913;28;20028;-69
2021/07/18 07:07:03;;;;;;;4.53;1.10;;;;;;;-145.18;100.00;60484.78;5065848;28;20557;-69
2021/07/18 07:09:29;;;;;;;4.18;1.20;;;;;;;-145.18;100.00;60484.78;5062722;28;20048;-69
2021/07/18 07:11:54;;;;;;;4.53;1.30;;;;;;;-145.18;100.00;60484.78;5063874;28;20366;-69
2021/07/18 07:14:20;;;;;;;4.32;1.20;;;;;;;-145.18;100.00;60484.78;5079661;28;20428;-70
2021/07/18 07:16:45;;;;;;;3.00;1.25;;;;;;;-145.18;100.00;60484.78;5083159;28;20206;-69
2021/07/18 07:19:11;;;;;;;4.22;1.40;;;;;;;-145.18;100.00;60484.78;5083340;28;20109;-69
2021/07/18 07:21:37;;;;;;;4.10;1.15;;;;;;;-145.18;100.00;60484.78;5081831;28;20045;-69
2021/07/18 07:24:03;;;;;;;8.90;1.70;;;;;;;-145.18;100.00;60484.78;5087253;28;20260;-69
2021/07/18 07:26:29;;;;;;;7.15;1.52;;;;;;;-145.18;100.00;60484.78;5079288;28;20028;-69
2021/07/18 07:28:55;;;;;;;14.82;1.70;;;;;;;-145.18;100.00;60484.78;5088125;28;20024;-69
2021/07/18 07:31:20;;;;;;;4.32;1.10;;;;;;;-145.18;100.00;60484.78;5083574;28;20024;-69
2021/07/18 07:33:46;;;;;;;4.50;1.20;;;;;;;-145.18;100.00;60484.78;5088132;28;20484;-69
2021/07/18 07:36:11;;;;;;;3.00;1.00;;;;;;;-145.18;100.00;60484.78;5083693;28;20568;-69
2021/07/18 07:38:37;;;;;;;3.35;1.20;;;;;;;-145.18;100.00;60484.78;5084657;28;20102;-69
2021/07/18 07:41:03;;;;;;;3.83;1.10;;;;;;;-145.18;100.00;60484.78;5083144;28;20263;-69
2021/07/18 07:43:28;;;;;;;3.60;1.25;;;;;;;-145.18;100.00;60484.78;5085705;28;20032;-69
2021/07/18 07:45:54;;;;;;;2.90;1.15;;;;;;;-145.18;100.00;60484.78;5083212;28;20157;-69
2021/07/18 07:48:20;;;;;;;6.68;1.80;;;;;;;-145.18;100.00;60484.78;5084938;28;20354;-69
2021/07/18 07:50:46;;;;;;;6.05;2.10;;;;;;;-145.18;100.00;60484.78;5082980;28;20024;-69
2021/07/18 07:53:12;;;;;;;4.78;1.67;;;;;;;-145.18;100.00;60484.78;5096262;28;20096;-69
2021/07/18 07:55:37;;;;;;;3.78;1.80;;;;;;;-145.18;100.00;60484.78;5082776;28;20032;-69
2021/07/18 07:58:05;;;;;;;6.07;1.73;;;;;;;-145.18;100.00;60484.78;5095022;28;20537;-69
2021/07/18 08:00:31;;;;;;;7.70;2.25;;;;;;;-145.18;100.00;60484.78;5082918;28;20199;-69
2021/07/18 08:02:56;;;;;;;6.68;2.08;;;;;;;-145.18;100.00;60484.78;5083188;28;20162;-69
2021/07/18 08:05:22;;;;;;;3.85;1.73;;;;;;;-145.18;100.00;60484.78;5082430;28;20042;-69
2021/07/18 08:07:48;;;;;;;3.30;1.58;;;;;;;-145.18;100.00;60484.78;5091745;28;20038;-70
2021/07/18 08:10:16;;;;;;;3.28;1.30;;;;;;;-145.18;100.00;60484.78;5081846;28;20107;-70
2021/07/18 08:12:43;;;;;;;5.95;1.60;;;;;;;-145.18;100.00;60484.78;5085932;28;20154;-70
2021/07/18 08:15:12;;;;;;;2.72;1.20;;;;;;;-145.18;100.00;60484.78;5081707;28;20024;-70
2021/07/18 08:17:38;;;;;;;2.72;1.10;;;;;;;-145.18;100.00;60484.78;5080119;28;20239;-70
2021/07/18 08:20:06;;;;;;;3.05;1.17;;;;;;;-145.18;100.00;60484.78;5084568;28;20135;-70
2021/07/18 08:22:32;;;;;;;3.67;1.30;;;;;;;-145.18;100.00;60484.78;5088246;28;20031;-70
2021/07/18 08:24:57;;;;;;;3.60;1.48;;;;;;;-145.18;100.00;60484.78;5081703;28;20425;-70
2021/07/18 08:27:23;;;;;;;5.03;1.60;;;;;;;-145.18;100.00;60484.78;5082423;28;20052;-70
2021/07/18 08:29:48;;;;;;;3.33;1.30;;;;;;;-145.18;100.00;60484.78;5081892;28;20035;-70
2021/07/18 08:32:14;;;;;;;4.97;1.30;;;;;;;-145.18;100.00;60484.78;5085536;28;20123;-70
2021/07/18 08:34:39;;;;;;;4.80;1.40;;;;;;;-145.18;100.00;60484.78;5080637;28;20020;-70
2021/07/18 08:37:05;;;;;;;3.72;1.60;;;;;;;-145.18;100.00;60484.78;5083003;28;20149;-70
2021/07/18 08:39:30;;;;;;;6.15;1.45;;;;;;;-145.18;100.00;60484.78;5081048;28;20028;-70
2021/07/18 08:41:56;;;;;;;6.30;1.40;;;;;;;-145.18;100.00;60484.78;5086482;28;20053;-70
2021/07/18 08:44:22;;;;;;;4.45;1.52;;;;;;;-145.18;100.00;60484.78;5082192;28;20453;-70
2021/07/18 08:46:48;;;;;;;5.45;1.40;;;;;;;-145.18;100.00;60484.78;5085047;28;20031;-70
2021/07/18 08:49:14;;;;;;;5.97;1.55;;;;;;;-145.18;100.00;60484.78;5084177;28;20020;-70
2021/07/18 08:51:40;;;;;;;3.97;1.23;;;;;;;-145.18;100.00;60484.78;5084225;28;20043;-70
2021/07/18 08:54:06;;;;;;;3.00;1.10;;;;;;;-145.18;100.00;60484.78;5084849;28;20292;-70
2021/07/18 08:56:36;;;;;;;3.13;1.10;;;;;;;-145.18;100.00;60484.78;5081914;28;20568;-70
2021/07/18 08:59:06;;;;;;;6.50;1.40;;;;;;;-145.18;100.00;60484.78;5084219;28;20028;-70
2021/07/18 09:01:33;;;;;;;4.40;1.40;;;;;;;-145.18;100.00;60484.78;5082444;28;20062;-70
2021/07/18 09:03:58;;;;;;;3.50;1.50;;;;;;;-145.18;100.00;60484.78;5083731;28;20062;-70
2021/07/18 09:06:38;;;;;;;4.63;1.45;;;;;;;-145.18;100.00;60484.78;5081626;28;20036;-70
2021/07/18 09:09:06;;;;;;;4.25;1.63;;;;;;;-145.18;100.00;60484.78;5081654;28;20051;-70
2021/07/18 09:11:32;;;;;;;3.50;1.20;;;;;;;-145.18;100.00;60484.78;5083093;28;20024;-71
2021/07/18 09:14:03;;;;;;;3.25;1.23;;;;;;;-145.18;100.00;60484.78;5081176;28;20036;-70
2021/07/18 09:16:37;;;;;;;3.00;1.10;;;;;;;-145.18;100.00;60484.78;5081481;28;20265;-70
2021/07/18 09:19:39;;;;;;;3.25;1.23;;;;;;;-145.18;100.00;60484.78;5081468;28;20020;-70
2021/07/18 09:22:13;;;;;;;4.75;1.30;;;;;;;-145.18;100.00;60484.78;5003988;28;20041;-70
2021/07/18 09:24:52;;;;;;;2.88;1.13;;;;;;;-145.18;100.00;60484.78;4994797;28;20034;-70
2021/07/18 09:27:29;;;;;;;4.13;1.35;;;;;;;-145.18;100.00;60484.78;4999657;28;20033;-70
2021/07/18 09:30:08;;;;;;;6.78;1.40;;;;;;;-145.18;100.00;60484.78;4996013;28;20050;-70
2021/07/18 09:32:35;;;;;;;4.88;1.50;;;;;;;-145.18;100.00;60484.78;4994660;28;20038;-70
2021/07/18 09:35:12;;;;;;;3.97;1.38;;;;;;;-145.18;100.00;60484.78;4985474;28;20026;-70
2021/07/18 09:37:43;;;;;;;3.80;1.45;;;;;;;-145.18;100.00;60484.78;4990459;28;20446;-70
2021/07/18 09:40:15;;;;;;;3.53;1.58;;;;;;;-145.18;100.00;60484.78;4988110;28;20038;-70
2021/07/18 09:42:49;;;;;;;4.68;1.20;;;;;;;-145.18;100.00;60484.78;5001750;28;20235;-70
2021/07/18 09:45:26;;;;;;;4.70;1.10;;;;;;;-145.18;100.00;60484.78;4994625;28;20044;-70
2021/07/18 09:48:05;;;;;;;3.88;1.10;;;;;;;-145.18;100.00;60484.78;5000786;28;20213;-70
2021/07/18 09:50:44;;;;;;;4.15;1.48;;;;;;;-145.18;100.00;60484.78;4995049;28;20049;-70
2021/07/18 09:53:17;;;;;;;3.25;1.10;;;;;;;-145.18;100.00;60484.78;4999852;28;20296;-70
2021/07/18 09:56:16;;;;;;;3.30;1.30;;;;;;;-145.18;100.00;60484.78;5020748;28;20075;-70
2021/07/18 09:58:57;;;;;;;4.18;1.25;;;;;;;-145.18;100.00;60484.78;5081666;28;20530;-71
2021/07/18 10:01:24;;;;;;;5.43;1.45;;;;;;;-145.18;100.00;60484.78;5078027;28;20024;-70
2021/07/18 10:03:53;;;;;;;4.05;1.00;;;;;;;-145.18;100.00;60484.78;5080188;28;20028;-71
2021/07/18 10:06:20;;;;;;;6.25;1.30;;;;;;;-145.18;100.00;60484.78;5080159;28;20503;-71
2021/07/18 10:08:50;;;;;;;7.05;0.90;;;;;;;-145.18;100.00;60484.78;5079135;28;20035;-70
2021/07/18 10:11:17;;;;;;;;;;;;;;;-145.18;100.00;60484.78;5076606;28;20052;-70
2021/07/18 10:13:45;;;;;;;4.35;1.27;;;;;;;-145.18;100.00;60484.78;5077875;28;19942;-70
2021/07/18 10:16:12;;;;;;;4.47;1.23;;;;;;;-145.18;100.00;60484.78;5081932;28;20535;-70
2021/07/18 10:18:39;;;;;;;3.15;1.10;;;;;;;-145.18;100.00;60484.78;5069786;28;20181;-71
2021/07/18 10:21:07;;;;;;;3.35;1.38;;;;;;;-145.18;100.00;60484.78;5073516;28;20035;-70
2021/07/18 10:23:38;;;;;;;3.03;1.00;;;;;;;-145.18;100.00;60484.78;5084477;28;20046;-70
2021/07/18 10:26:05;;;;;;;3.22;1.13;;;;;;;-145.18;100.00;60484.78;5069368;28;20024;-70
2021/07/18 10:28:31;;;;;;;4.25;1.02;;;;;;;-145.18;100.00;60484.78;5075776;28;20028;-71
2021/07/18 10:31:04;;;;;;;3.13;0.95;;;;;;;-145.18;100.00;60484.78;5076521;28;20032;-71
2021/07/18 10:33:31;;;;;;;3.58;1.00;;;;;;;-145.18;100.00;60484.78;5085444;28;20170;-71
2021/07/18 10:36:01;;;;;;;3.00;1.00;;;;;;;-145.18;100.00;60484.78;5077037;28;20164;-70
2021/07/18 10:38:26;;;;;;;2.08;0.80;;;;;;;-145.18;100.00;60484.78;5078029;28;20467;-71
2021/07/18 10:40:56;;;;;;;4.70;0.95;;;;;;;-145.18;100.00;60484.78;5070357;28;20150;-71
2021/07/18 10:43:54;;;;;;;2.60;1.03;;;;;;;-145.18;100.00;60484.78;5071481;28;20024;-70
2021/07/18 10:46:56;;;;;;;2.85;0.93;;;;;;;-145.18;100.00;60484.78;4997943;28;20044;-71
2021/07/18 10:49:51;;;;;;;4.18;1.27;;;;;;;-145.18;100.00;60484.78;5065516;28;20514;-71
2021/07/18 10:52:18;;;;;;;4.97;1.48;;;;;;;-145.18;100.00;60484.78;5072108;28;20067;-71
2021/07/18 10:54:44;;;;;;;5.22;1.10;;;;;;;-145.18;100.00;60484.78;5067338;28;20028;-71
2021/07/18 10:57:32;;;;;;;2.03;0.90;;;;;;;-145.18;100.00;60484.78;5070158;28;20562;-71
2021/07/18 11:00:22;;;;;;;3.67;1.08;;;;;;;-145.18;100.00;60484.78;5070176;28;20602;-71
2021/07/18 11:03:12;;;;;;;3.63;1.30;;;;;;;-145.18;100.00;60484.78;5071294;28;20419;-71
2021/07/18 11:05:43;;;;;;;3.08;1.30;;;;;;;-145.18;100.00;60484.78;5065668;28;20028;-71
2021/07/18 11:08:10;;;;;;;3.72;1.10;;;;;;;-145.18;100.00;60484.78;5081365;28;20213;-71